sensor_id;sensor_type;location;lat;lon;timestamp;pressure;altitude;pressure_sealevel;temperature;humidity
34235;BME280;20500;49.856;20.290;2023-03-12T00:02:59;98203.95;;;-0.53;73.28
34235;BME280;20500;49.856;20.290;2023-03-12T00:06:06;98208.74;;;-0.51;73.47
34235;BME280;20500;49.856;20.290;2023-03-12T00:09:14;98211.20;;;-0.54;73.31
34235;BME280;20500;49.856;20.290;2023-03-12T00:12:20;98215.16;;;-0.55;73.39
34235;BME280;20500;49.856;20.290;2023-03-12T00:15:26;98216.23;;;-0.53;73.37
34235;BME280;20500;49.856;20.290;2023-03-12T00:18:32;98221.75;;;-0.54;73.29
34235;BME280;20500;49.856;20.290;2023-03-12T00:21:38;98221.50;;;-0.58;73.41
34235;BME280;20500;49.856;20.290;2023-03-12T00:24:43;98221.44;;;-0.59;73.40
34235;BME280;20500;49.856;20.290;2023-03-12T00:27:50;98229.33;;;-0.62;73.35
34235;BME280;20500;49.856;20.290;2023-03-12T00:30:54;98235.50;;;-0.65;73.36
34235;BME280;20500;49.856;20.290;2023-03-12T00:34:00;98238.39;;;-0.67;73.44
34235;BME280;20500;49.856;20.290;2023-03-12T00:37:07;98235.29;;;-0.73;73.35
34235;BME280;20500;49.856;20.290;2023-03-12T00:40:14;98234.30;;;-0.76;73.38
34235;BME280;20500;49.856;20.290;2023-03-12T00:43:19;98237.73;;;-0.77;73.44
34235;BME280;20500;49.856;20.290;2023-03-12T00:46:26;98239.48;;;-0.78;73.51
34235;BME280;20500;49.856;20.290;2023-03-12T00:49:30;98242.79;;;-0.79;73.41
34235;BME280;20500;49.856;20.290;2023-03-12T00:52:36;98246.40;;;-0.82;73.42
34235;BME280;20500;49.856;20.290;2023-03-12T00:55:41;98255.55;;;-0.85;73.51
34235;BME280;20500;49.856;20.290;2023-03-12T00:58:47;98256.87;;;-0.88;73.45
34235;BME280;20500;49.856;20.290;2023-03-12T01:01:53;98261.45;;;-0.89;73.46
34235;BME280;20500;49.856;20.290;2023-03-12T01:04:59;98261.48;;;-0.92;73.50
34235;BME280;20500;49.856;20.290;2023-03-12T01:08:06;98263.60;;;-0.96;73.52
34235;BME280;20500;49.856;20.290;2023-03-12T01:11:16;98268.80;;;-0.99;73.47
34235;BME280;20500;49.856;20.290;2023-03-12T01:14:22;98272.66;;;-1.02;73.54
34235;BME280;20500;49.856;20.290;2023-03-12T01:17:27;98272.61;;;-1.04;73.51
34235;BME280;20500;49.856;20.290;2023-03-12T01:20:33;98274.59;;;-1.08;73.32
34235;BME280;20500;49.856;20.290;2023-03-12T01:23:39;98270.35;;;-1.12;73.46
34235;BME280;20500;49.856;20.290;2023-03-12T01:26:45;98273.48;;;-1.09;73.60
34235;BME280;20500;49.856;20.290;2023-03-12T01:29:51;98277.23;;;-1.12;73.53
34235;BME280;20500;49.856;20.290;2023-03-12T01:32:56;98276.48;;;-1.13;73.57
34235;BME280;20500;49.856;20.290;2023-03-12T01:36:03;98274.58;;;-1.12;73.68
34235;BME280;20500;49.856;20.290;2023-03-12T01:39:09;98274.73;;;-1.14;73.63
34235;BME280;20500;49.856;20.290;2023-03-12T01:42:15;98278.36;;;-1.17;73.64
34235;BME280;20500;49.856;20.290;2023-03-12T01:45:58;98281.38;;;-1.19;73.67
34235;BME280;20500;49.856;20.290;2023-03-12T01:49:09;98280.46;;;-1.21;73.47
34235;BME280;20500;49.856;20.290;2023-03-12T01:52:17;98284.01;;;-1.25;73.59
34235;BME280;20500;49.856;20.290;2023-03-12T01:55:25;98283.42;;;-1.26;73.66
34235;BME280;20500;49.856;20.290;2023-03-12T01:58:30;98288.76;;;-1.28;73.57
34235;BME280;20500;49.856;20.290;2023-03-12T02:01:36;98292.33;;;-1.31;73.66
34235;BME280;20500;49.856;20.290;2023-03-12T02:04:43;98290.02;;;-1.29;73.78
34235;BME280;20500;49.856;20.290;2023-03-12T02:07:51;98295.16;;;-1.28;73.76
34235;BME280;20500;49.856;20.290;2023-03-12T02:10:57;98296.29;;;-1.27;73.66
34235;BME280;20500;49.856;20.290;2023-03-12T02:14:03;98297.86;;;-1.24;73.84
34235;BME280;20500;49.856;20.290;2023-03-12T02:17:10;98304.39;;;-1.24;73.82
34235;BME280;20500;49.856;20.290;2023-03-12T02:20:19;98307.83;;;-1.22;73.73
34235;BME280;20500;49.856;20.290;2023-03-12T02:23:32;98308.52;;;-1.22;73.82
34235;BME280;20500;49.856;20.290;2023-03-12T02:26:40;98313.13;;;-1.24;73.80
34235;BME280;20500;49.856;20.290;2023-03-12T02:29:44;98321.80;;;-1.25;73.74
34235;BME280;20500;49.856;20.290;2023-03-12T02:32:50;98324.02;;;-1.29;73.63
34235;BME280;20500;49.856;20.290;2023-03-12T02:35:57;98325.69;;;-1.34;73.65
34235;BME280;20500;49.856;20.290;2023-03-12T02:39:04;98333.70;;;-1.38;73.70
34235;BME280;20500;49.856;20.290;2023-03-12T02:42:10;98335.42;;;-1.35;73.76
34235;BME280;20500;49.856;20.290;2023-03-12T02:45:16;98337.92;;;-1.33;73.67
34235;BME280;20500;49.856;20.290;2023-03-12T02:48:22;98339.18;;;-1.33;73.79
34235;BME280;20500;49.856;20.290;2023-03-12T02:51:29;98343.05;;;-1.35;73.83
34235;BME280;20500;49.856;20.290;2023-03-12T02:54:34;98348.13;;;-1.40;73.62
34235;BME280;20500;49.856;20.290;2023-03-12T02:57:40;98352.36;;;-1.44;73.72
34235;BME280;20500;49.856;20.290;2023-03-12T03:00:47;98357.20;;;-1.47;73.63
34235;BME280;20500;49.856;20.290;2023-03-12T03:03:53;98361.20;;;-1.50;73.63
34235;BME280;20500;49.856;20.290;2023-03-12T03:07:00;98361.79;;;-1.55;73.77
34235;BME280;20500;49.856;20.290;2023-03-12T03:10:08;98372.13;;;-1.58;73.68
34235;BME280;20500;49.856;20.290;2023-03-12T03:13:14;98366.02;;;-1.59;73.52
34235;BME280;20500;49.856;20.290;2023-03-12T03:16:21;98369.05;;;-1.59;73.66
34235;BME280;20500;49.856;20.290;2023-03-12T03:19:27;98375.84;;;-1.60;73.74
34235;BME280;20500;49.856;20.290;2023-03-12T03:22:33;98381.61;;;-1.63;73.67
34235;BME280;20500;49.856;20.290;2023-03-12T03:25:38;98382.56;;;-1.64;73.76
34235;BME280;20500;49.856;20.290;2023-03-12T03:28:44;98381.27;;;-1.63;73.66
34235;BME280;20500;49.856;20.290;2023-03-12T03:31:50;98384.97;;;-1.65;73.51
34235;BME280;20500;49.856;20.290;2023-03-12T03:34:56;98390.01;;;-1.68;73.55
34235;BME280;20500;49.856;20.290;2023-03-12T03:38:02;98392.27;;;-1.69;73.64
34235;BME280;20500;49.856;20.290;2023-03-12T03:41:08;98395.33;;;-1.68;73.61
34235;BME280;20500;49.856;20.290;2023-03-12T03:44:14;98397.65;;;-1.65;73.59
34235;BME280;20500;49.856;20.290;2023-03-12T03:47:18;98408.62;;;-1.65;73.56
34235;BME280;20500;49.856;20.290;2023-03-12T03:50:25;98411.80;;;-1.64;73.61
34235;BME280;20500;49.856;20.290;2023-03-12T03:53:31;98417.86;;;-1.60;73.74
34235;BME280;20500;49.856;20.290;2023-03-12T03:56:38;98423.30;;;-1.57;73.61
34235;BME280;20500;49.856;20.290;2023-03-12T03:59:44;98425.98;;;-1.55;73.50
34235;BME280;20500;49.856;20.290;2023-03-12T04:02:50;98431.70;;;-1.53;73.45
34235;BME280;20500;49.856;20.290;2023-03-12T04:05:57;98427.70;;;-1.50;73.50
34235;BME280;20500;49.856;20.290;2023-03-12T04:09:04;98431.73;;;-1.47;73.52
34235;BME280;20500;49.856;20.290;2023-03-12T04:12:10;98433.23;;;-1.43;73.58
34235;BME280;20500;49.856;20.290;2023-03-12T04:15:15;98433.64;;;-1.39;73.55
34235;BME280;20500;49.856;20.290;2023-03-12T04:18:21;98435.05;;;-1.39;73.54
34235;BME280;20500;49.856;20.290;2023-03-12T04:21:27;98436.90;;;-1.38;73.68
34235;BME280;20500;49.856;20.290;2023-03-12T04:24:33;98438.02;;;-1.34;73.56
34235;BME280;20500;49.856;20.290;2023-03-12T04:27:38;98441.36;;;-1.31;73.54
34235;BME280;20500;49.856;20.290;2023-03-12T04:30:44;98441.19;;;-1.31;73.43
34235;BME280;20500;49.856;20.290;2023-03-12T04:33:49;98440.39;;;-1.30;73.43
34235;BME280;20500;49.856;20.290;2023-03-12T04:36:55;98444.58;;;-1.29;73.43
34235;BME280;20500;49.856;20.290;2023-03-12T04:40:02;98446.02;;;-1.29;73.46
34235;BME280;20500;49.856;20.290;2023-03-12T04:43:11;98449.80;;;-1.28;73.45
34235;BME280;20500;49.856;20.290;2023-03-12T04:46:17;98453.09;;;-1.29;73.40
34235;BME280;20500;49.856;20.290;2023-03-12T04:49:23;98454.61;;;-1.28;73.48
34235;BME280;20500;49.856;20.290;2023-03-12T04:52:28;98456.79;;;-1.24;73.47
34235;BME280;20500;49.856;20.290;2023-03-12T04:55:34;98454.19;;;-1.23;73.46
34235;BME280;20500;49.856;20.290;2023-03-12T04:58:40;98451.58;;;-1.25;73.30
34235;BME280;20500;49.856;20.290;2023-03-12T05:01:46;98453.83;;;-1.29;73.33
34235;BME280;20500;49.856;20.290;2023-03-12T05:04:54;98449.92;;;-1.32;73.18
34235;BME280;20500;49.856;20.290;2023-03-12T05:08:00;98451.21;;;-1.32;73.20
34235;BME280;20500;49.856;20.290;2023-03-12T05:11:06;98449.66;;;-1.33;73.13
34235;BME280;20500;49.856;20.290;2023-03-12T05:14:12;98458.04;;;-1.35;73.16
34235;BME280;20500;49.856;20.290;2023-03-12T05:17:18;98459.04;;;-1.34;73.16
34235;BME280;20500;49.856;20.290;2023-03-12T05:20:25;98460.39;;;-1.33;73.08
34235;BME280;20500;49.856;20.290;2023-03-12T05:23:31;98461.65;;;-1.34;73.07
34235;BME280;20500;49.856;20.290;2023-03-12T05:26:37;98463.26;;;-1.36;73.07
34235;BME280;20500;49.856;20.290;2023-03-12T05:29:42;98465.69;;;-1.37;73.05
34235;BME280;20500;49.856;20.290;2023-03-12T05:32:47;98471.41;;;-1.39;72.91
34235;BME280;20500;49.856;20.290;2023-03-12T05:35:53;98472.55;;;-1.43;73.05
34235;BME280;20500;49.856;20.290;2023-03-12T05:38:59;98473.63;;;-1.45;73.05
34235;BME280;20500;49.856;20.290;2023-03-12T05:42:06;98476.27;;;-1.49;72.79
34235;BME280;20500;49.856;20.290;2023-03-12T05:45:11;98480.12;;;-1.53;72.80
34235;BME280;20500;49.856;20.290;2023-03-12T05:48:17;98483.20;;;-1.56;72.73
34235;BME280;20500;49.856;20.290;2023-03-12T05:51:23;98481.50;;;-1.57;72.85
34235;BME280;20500;49.856;20.290;2023-03-12T05:54:28;98484.02;;;-1.58;72.74
34235;BME280;20500;49.856;20.290;2023-03-12T05:57:34;98486.46;;;-1.57;72.83
34235;BME280;20500;49.856;20.290;2023-03-12T06:00:41;98491.33;;;-1.55;72.77
34235;BME280;20500;49.856;20.290;2023-03-12T06:03:48;98498.77;;;-1.53;72.67
34235;BME280;20500;49.856;20.290;2023-03-12T06:06:54;98501.52;;;-1.52;72.67
34235;BME280;20500;49.856;20.290;2023-03-12T06:09:59;98504.56;;;-1.50;72.70
34235;BME280;20500;49.856;20.290;2023-03-12T06:13:06;98512.57;;;-1.45;72.60
34235;BME280;20500;49.856;20.290;2023-03-12T06:16:13;98509.54;;;-1.40;72.68
34235;BME280;20500;49.856;20.290;2023-03-12T06:19:20;98515.20;;;-1.37;72.74
34235;BME280;20500;49.856;20.290;2023-03-12T06:22:26;98518.48;;;-1.34;72.71
34235;BME280;20500;49.856;20.290;2023-03-12T06:25:33;98522.34;;;-1.29;72.66
34235;BME280;20500;49.856;20.290;2023-03-12T06:28:39;98528.30;;;-1.23;72.66
34235;BME280;20500;49.856;20.290;2023-03-12T06:31:45;98529.06;;;-1.17;72.63
34235;BME280;20500;49.856;20.290;2023-03-12T06:34:51;98533.19;;;-1.11;72.50
34235;BME280;20500;49.856;20.290;2023-03-12T06:37:57;98537.84;;;-1.05;72.49
34235;BME280;20500;49.856;20.290;2023-03-12T06:41:06;98542.75;;;-0.96;72.49
34235;BME280;20500;49.856;20.290;2023-03-12T06:44:12;98540.97;;;-0.90;72.31
34235;BME280;20500;49.856;20.290;2023-03-12T06:47:18;98548.71;;;-0.84;72.31
34235;BME280;20500;49.856;20.290;2023-03-12T06:50:24;98550.91;;;-0.79;72.22
34235;BME280;20500;49.856;20.290;2023-03-12T06:53:30;98547.77;;;-0.75;72.20
34235;BME280;20500;49.856;20.290;2023-03-12T06:56:35;98547.42;;;-0.71;72.21
34235;BME280;20500;49.856;20.290;2023-03-12T06:59:42;98555.27;;;-0.66;72.15
34235;BME280;20500;49.856;20.290;2023-03-12T07:02:46;98563.05;;;-0.61;72.17
34235;BME280;20500;49.856;20.290;2023-03-12T07:05:54;98565.73;;;-0.55;71.99
34235;BME280;20500;49.856;20.290;2023-03-12T07:09:00;98570.52;;;-0.47;71.89
34235;BME280;20500;49.856;20.290;2023-03-12T07:12:07;98573.40;;;-0.39;71.93
34235;BME280;20500;49.856;20.290;2023-03-12T07:15:13;98578.13;;;-0.27;71.89
34235;BME280;20500;49.856;20.290;2023-03-12T07:18:18;98578.75;;;-0.16;71.89
34235;BME280;20500;49.856;20.290;2023-03-12T07:21:24;98576.13;;;-0.01;71.86
34235;BME280;20500;49.856;20.290;2023-03-12T07:24:30;98573.38;;;0.15;71.97
34235;BME280;20500;49.856;20.290;2023-03-12T07:27:36;98581.88;;;0.30;71.88
34235;BME280;20500;49.856;20.290;2023-03-12T07:30:41;98578.81;;;0.43;71.83
34235;BME280;20500;49.856;20.290;2023-03-12T07:33:53;98583.27;;;0.52;71.72
34235;BME280;20500;49.856;20.290;2023-03-12T07:36:59;98578.14;;;0.57;71.41
34235;BME280;20500;49.856;20.290;2023-03-12T07:40:08;98559.40;;;0.58;71.23
34235;BME280;20500;49.856;20.290;2023-03-12T07:43:14;98551.16;;;0.58;71.28
34235;BME280;20500;49.856;20.290;2023-03-12T07:46:21;98557.91;;;0.60;71.15
34235;BME280;20500;49.856;20.290;2023-03-12T07:49:27;98567.60;;;0.74;71.23
34235;BME280;20500;49.856;20.290;2023-03-12T07:52:33;98572.28;;;0.86;71.04
34235;BME280;20500;49.856;20.290;2023-03-12T07:55:38;98570.64;;;0.86;70.84
34235;BME280;20500;49.856;20.290;2023-03-12T07:58:44;98563.96;;;0.87;70.81
34235;BME280;20500;49.856;20.290;2023-03-12T08:01:50;98569.84;;;0.91;70.72
34235;BME280;20500;49.856;20.290;2023-03-12T08:04:57;98572.88;;;1.00;70.74
34235;BME280;20500;49.856;20.290;2023-03-12T08:08:03;98576.90;;;1.09;70.68
34235;BME280;20500;49.856;20.290;2023-03-12T08:11:09;98579.98;;;1.13;70.50
34235;BME280;20500;49.856;20.290;2023-03-12T08:14:15;98577.52;;;1.18;70.43
34235;BME280;20500;49.856;20.290;2023-03-12T08:17:22;98577.14;;;1.24;70.35
34235;BME280;20500;49.856;20.290;2023-03-12T08:20:28;98575.30;;;1.23;70.26
34235;BME280;20500;49.856;20.290;2023-03-12T08:23:34;98575.59;;;1.24;70.16
34235;BME280;20500;49.856;20.290;2023-03-12T08:26:40;98583.09;;;1.26;69.98
34235;BME280;20500;49.856;20.290;2023-03-12T08:29:46;98583.44;;;1.28;69.89
34235;BME280;20500;49.856;20.290;2023-03-12T08:32:52;98580.35;;;1.31;69.91
34235;BME280;20500;49.856;20.290;2023-03-12T08:35:58;98587.52;;;1.34;70.01
34235;BME280;20500;49.856;20.290;2023-03-12T08:39:04;98581.56;;;1.41;69.89
34235;BME280;20500;49.856;20.290;2023-03-12T08:42:09;98583.31;;;1.50;69.92
34235;BME280;20500;49.856;20.290;2023-03-12T08:45:15;98584.55;;;1.52;69.55
34235;BME280;20500;49.856;20.290;2023-03-12T08:48:21;98579.58;;;1.53;69.53
34235;BME280;20500;49.856;20.290;2023-03-12T08:51:27;98578.23;;;1.58;69.45
34235;BME280;20500;49.856;20.290;2023-03-12T08:54:33;98574.06;;;1.65;69.58
34235;BME280;20500;49.856;20.290;2023-03-12T08:57:39;98572.53;;;1.74;69.62
34235;BME280;20500;49.856;20.290;2023-03-12T09:00:45;98571.39;;;1.81;69.33
34235;BME280;20500;49.856;20.290;2023-03-12T09:03:50;98572.91;;;1.87;69.33
34235;BME280;20500;49.856;20.290;2023-03-12T09:06:59;98577.04;;;1.93;69.13
34235;BME280;20500;49.856;20.290;2023-03-12T09:10:06;98584.69;;;2.00;69.14
34235;BME280;20500;49.856;20.290;2023-03-12T09:13:12;98588.73;;;2.05;69.11
34235;BME280;20500;49.856;20.290;2023-03-12T09:16:18;98593.43;;;2.12;68.98
34235;BME280;20500;49.856;20.290;2023-03-12T09:19:24;98600.15;;;2.18;68.89
34235;BME280;20500;49.856;20.290;2023-03-12T09:22:30;98600.02;;;2.22;68.59
34235;BME280;20500;49.856;20.290;2023-03-12T09:25:35;98600.77;;;2.26;68.81
34235;BME280;20500;49.856;20.290;2023-03-12T09:28:41;98601.99;;;2.32;68.73
34235;BME280;20500;49.856;20.290;2023-03-12T09:31:48;98599.06;;;2.38;68.68
34235;BME280;20500;49.856;20.290;2023-03-12T09:34:54;98598.33;;;2.42;68.36
34235;BME280;20500;49.856;20.290;2023-03-12T09:38:00;98598.59;;;2.47;68.38
34235;BME280;20500;49.856;20.290;2023-03-12T09:41:11;98592.65;;;2.49;68.29
34235;BME280;20500;49.856;20.290;2023-03-12T09:44:25;98588.27;;;2.54;68.25
34235;BME280;20500;49.856;20.290;2023-03-12T09:47:37;98584.83;;;2.64;68.13
34235;BME280;20500;49.856;20.290;2023-03-12T09:50:49;98589.61;;;2.74;68.05
34235;BME280;20500;49.856;20.290;2023-03-12T09:53:57;98586.19;;;2.80;67.79
34235;BME280;20500;49.856;20.290;2023-03-12T09:57:10;98587.55;;;2.88;67.84
34235;BME280;20500;49.856;20.290;2023-03-12T10:00:19;98586.29;;;2.96;67.91
34235;BME280;20500;49.856;20.290;2023-03-12T10:03:51;98588.97;;;3.02;67.70
34235;BME280;20500;49.856;20.290;2023-03-12T10:07:06;98592.04;;;3.13;67.69
34235;BME280;20500;49.856;20.290;2023-03-12T10:10:22;98590.33;;;3.23;67.54
34235;BME280;20500;49.856;20.290;2023-03-12T10:13:42;98590.13;;;3.32;67.43
34235;BME280;20500;49.856;20.290;2023-03-12T10:17:04;98579.92;;;3.39;67.38
34235;BME280;20500;49.856;20.290;2023-03-12T10:20:47;98581.38;;;3.51;67.26
34235;BME280;20500;49.856;20.290;2023-03-12T10:24:06;98571.31;;;3.58;67.00
34235;BME280;20500;49.856;20.290;2023-03-12T10:27:17;98569.54;;;3.71;67.02
34235;BME280;20500;49.856;20.290;2023-03-12T10:30:24;98567.19;;;3.83;67.04
34235;BME280;20500;49.856;20.290;2023-03-12T10:33:41;98562.05;;;3.92;67.02
34235;BME280;20500;49.856;20.290;2023-03-12T10:36:46;98561.11;;;4.03;66.81
34235;BME280;20500;49.856;20.290;2023-03-12T10:39:53;98561.06;;;4.13;66.66
34235;BME280;20500;49.856;20.290;2023-03-12T10:42:59;98560.63;;;4.17;66.54
34235;BME280;20500;49.856;20.290;2023-03-12T10:46:06;98562.02;;;4.26;66.44
34235;BME280;20500;49.856;20.290;2023-03-12T10:49:29;98559.02;;;4.40;66.33
34235;BME280;20500;49.856;20.290;2023-03-12T10:52:35;98563.26;;;4.56;66.38
34235;BME280;20500;49.856;20.290;2023-03-12T10:55:41;98564.08;;;4.66;66.15
34235;BME280;20500;49.856;20.290;2023-03-12T10:58:49;98568.30;;;4.72;66.09
34235;BME280;20500;49.856;20.290;2023-03-12T11:01:56;98565.94;;;4.76;65.86
34235;BME280;20500;49.856;20.290;2023-03-12T11:05:06;98562.88;;;4.86;65.78
34235;BME280;20500;49.856;20.290;2023-03-12T11:08:25;98560.63;;;5.00;65.75
34235;BME280;20500;49.856;20.290;2023-03-12T11:11:35;98564.61;;;5.10;65.61
34235;BME280;20500;49.856;20.290;2023-03-12T11:14:46;98569.61;;;5.20;65.43
34235;BME280;20500;49.856;20.290;2023-03-12T11:17:53;98574.84;;;5.32;65.11
34235;BME280;20500;49.856;20.290;2023-03-12T11:21:19;98576.13;;;5.39;64.74
34235;BME280;20500;49.856;20.290;2023-03-12T11:24:25;98584.55;;;5.48;64.63
34235;BME280;20500;49.856;20.290;2023-03-12T11:27:43;98587.98;;;5.54;64.61
34235;BME280;20500;49.856;20.290;2023-03-12T11:30:52;98583.02;;;5.69;64.66
34235;BME280;20500;49.856;20.290;2023-03-12T11:34:04;98587.11;;;5.90;64.67
34235;BME280;20500;49.856;20.290;2023-03-12T11:37:17;98585.10;;;6.11;64.61
34235;BME280;20500;49.856;20.290;2023-03-12T11:40:37;98581.94;;;6.24;64.17
34235;BME280;20500;49.856;20.290;2023-03-12T11:44:03;98579.80;;;6.29;64.00
34235;BME280;20500;49.856;20.290;2023-03-12T11:47:23;98577.16;;;6.37;63.73
34235;BME280;20500;49.856;20.290;2023-03-12T11:50:44;98574.88;;;6.45;63.73
34235;BME280;20500;49.856;20.290;2023-03-12T11:54:03;98579.73;;;6.40;63.47
34235;BME280;20500;49.856;20.290;2023-03-12T11:57:17;98584.76;;;6.28;63.11
34235;BME280;20500;49.856;20.290;2023-03-12T12:00:32;98579.49;;;6.34;63.20
34235;BME280;20500;49.856;20.290;2023-03-12T12:07:18;98575.65;;;6.59;62.73
34235;BME280;20500;49.856;20.290;2023-03-12T12:10:33;98580.79;;;6.66;62.95
34235;BME280;20500;49.856;20.290;2023-03-12T12:13:53;98571.92;;;6.76;62.66
34235;BME280;20500;49.856;20.290;2023-03-12T12:17:07;98578.48;;;6.94;62.59
34235;BME280;20500;49.856;20.290;2023-03-12T12:20:23;98583.37;;;7.01;62.19
34235;BME280;20500;49.856;20.290;2023-03-12T12:23:40;98583.48;;;6.99;62.13
34235;BME280;20500;49.856;20.290;2023-03-12T12:26:56;98588.22;;;6.87;62.06
34235;BME280;20500;49.856;20.290;2023-03-12T12:30:11;98580.44;;;6.91;61.80
34235;BME280;20500;49.856;20.290;2023-03-12T12:33:31;98581.10;;;6.99;61.75
34235;BME280;20500;49.856;20.290;2023-03-12T12:36:39;98581.30;;;7.07;61.33
34235;BME280;20500;49.856;20.290;2023-03-12T12:39:55;98578.48;;;7.10;61.25
34235;BME280;20500;49.856;20.290;2023-03-12T12:43:15;98577.60;;;7.09;61.01
34235;BME280;20500;49.856;20.290;2023-03-12T12:46:29;98579.23;;;7.04;60.84
34235;BME280;20500;49.856;20.290;2023-03-12T12:49:42;98583.38;;;6.95;60.51
34235;BME280;20500;49.856;20.290;2023-03-12T12:52:53;98583.14;;;7.02;60.84
34235;BME280;20500;49.856;20.290;2023-03-12T12:56:10;98583.42;;;7.27;60.76
34235;BME280;20500;49.856;20.290;2023-03-12T12:59:29;98583.65;;;7.46;60.36
34235;BME280;20500;49.856;20.290;2023-03-12T13:02:41;98585.41;;;7.52;60.19
34235;BME280;20500;49.856;20.290;2023-03-12T13:05:56;98593.69;;;7.59;59.95
34235;BME280;20500;49.856;20.290;2023-03-12T13:09:14;98594.13;;;7.60;59.89
34235;BME280;20500;49.856;20.290;2023-03-12T13:12:26;98592.94;;;7.59;59.68
34235;BME280;20500;49.856;20.290;2023-03-12T13:15:37;98598.66;;;7.57;59.35
34235;BME280;20500;49.856;20.290;2023-03-12T13:18:56;98599.69;;;7.63;59.32
34235;BME280;20500;49.856;20.290;2023-03-12T13:22:11;98594.94;;;7.68;59.19
34235;BME280;20500;49.856;20.290;2023-03-12T13:25:29;98590.95;;;7.73;58.97
34235;BME280;20500;49.856;20.290;2023-03-12T13:28:58;98590.04;;;7.79;58.73
34235;BME280;20500;49.856;20.290;2023-03-12T13:32:37;98586.50;;;7.82;58.68
34235;BME280;20500;49.856;20.290;2023-03-12T13:35:48;98586.70;;;7.87;58.83
34235;BME280;20500;49.856;20.290;2023-03-12T13:39:28;98584.41;;;7.89;58.87
34235;BME280;20500;49.856;20.290;2023-03-12T13:42:40;98590.31;;;7.94;58.41
34235;BME280;20500;49.856;20.290;2023-03-12T13:46:00;98589.31;;;7.89;58.12
34235;BME280;20500;49.856;20.290;2023-03-12T13:49:20;98590.04;;;7.73;57.63
34235;BME280;20500;49.856;20.290;2023-03-12T13:52:27;98587.26;;;7.45;57.37
34235;BME280;20500;49.856;20.290;2023-03-12T13:55:35;98589.40;;;7.25;57.50
34235;BME280;20500;49.856;20.290;2023-03-12T13:58:49;98590.01;;;7.18;57.72
34235;BME280;20500;49.856;20.290;2023-03-12T14:02:03;98589.84;;;7.21;57.59
34235;BME280;20500;49.856;20.290;2023-03-12T14:05:12;98591.36;;;7.30;57.63
34235;BME280;20500;49.856;20.290;2023-03-12T14:08:32;98594.36;;;7.35;57.38
34235;BME280;20500;49.856;20.290;2023-03-12T14:11:51;98596.95;;;7.33;57.30
34235;BME280;20500;49.856;20.290;2023-03-12T14:15:19;98594.41;;;7.31;56.97
34235;BME280;20500;49.856;20.290;2023-03-12T14:18:28;98588.44;;;7.25;56.63
34235;BME280;20500;49.856;20.290;2023-03-12T14:21:39;98582.83;;;7.18;56.61
34235;BME280;20500;49.856;20.290;2023-03-12T14:24:52;98579.66;;;7.18;56.46
34235;BME280;20500;49.856;20.290;2023-03-12T14:27:59;98580.03;;;7.20;56.14
34235;BME280;20500;49.856;20.290;2023-03-12T14:31:08;98580.60;;;7.13;55.99
34235;BME280;20500;49.856;20.290;2023-03-12T14:34:18;98584.39;;;7.15;56.17
34235;BME280;20500;49.856;20.290;2023-03-12T14:37:30;98585.06;;;7.18;56.18
34235;BME280;20500;49.856;20.290;2023-03-12T14:40:41;98587.41;;;7.14;55.65
34235;BME280;20500;49.856;20.290;2023-03-12T14:43:52;98584.05;;;7.07;55.62
34235;BME280;20500;49.856;20.290;2023-03-12T14:47:00;98585.33;;;7.00;55.44
34235;BME280;20500;49.856;20.290;2023-03-12T14:50:17;98592.27;;;6.95;55.58
34235;BME280;20500;49.856;20.290;2023-03-12T14:53:25;98596.12;;;6.94;55.29
34235;BME280;20500;49.856;20.290;2023-03-12T14:56:33;98590.17;;;6.97;55.23
34235;BME280;20500;49.856;20.290;2023-03-12T14:59:39;98592.75;;;6.92;55.00
34235;BME280;20500;49.856;20.290;2023-03-12T15:02:45;98599.41;;;6.84;54.86
34235;BME280;20500;49.856;20.290;2023-03-12T15:05:52;98602.06;;;6.74;54.74
34235;BME280;20500;49.856;20.290;2023-03-12T15:08:59;98603.45;;;6.72;54.81
34235;BME280;20500;49.856;20.290;2023-03-12T15:12:16;98600.77;;;6.66;54.53
34235;BME280;20500;49.856;20.290;2023-03-12T15:15:32;98605.73;;;6.54;54.42
34235;BME280;20500;49.856;20.290;2023-03-12T15:18:40;98614.48;;;6.44;54.29
34235;BME280;20500;49.856;20.290;2023-03-12T15:21:46;98620.23;;;6.33;54.26
34235;BME280;20500;49.856;20.290;2023-03-12T15:24:51;98621.20;;;6.26;54.27
34235;BME280;20500;49.856;20.290;2023-03-12T15:28:24;98620.95;;;6.22;54.11
34235;BME280;20500;49.856;20.290;2023-03-12T15:31:41;98628.29;;;6.19;54.18
34235;BME280;20500;49.856;20.290;2023-03-12T15:34:48;98633.10;;;6.15;53.93
34235;BME280;20500;49.856;20.290;2023-03-12T15:37:53;98635.98;;;6.06;53.75
34235;BME280;20500;49.856;20.290;2023-03-12T15:41:07;98637.08;;;5.98;53.75
34235;BME280;20500;49.856;20.290;2023-03-12T15:44:17;98640.78;;;5.92;53.60
34235;BME280;20500;49.856;20.290;2023-03-12T15:47:25;98645.63;;;5.83;53.64
34235;BME280;20500;49.856;20.290;2023-03-12T15:50:35;98650.13;;;5.78;53.55
34235;BME280;20500;49.856;20.290;2023-03-12T15:53:42;98649.86;;;5.72;53.55
34235;BME280;20500;49.856;20.290;2023-03-12T15:56:48;98639.68;;;5.68;53.44
34235;BME280;20500;49.856;20.290;2023-03-12T16:00:17;98635.63;;;5.65;53.56
34235;BME280;20500;49.856;20.290;2023-03-12T16:03:23;98631.64;;;5.60;53.39
34235;BME280;20500;49.856;20.290;2023-03-12T16:06:29;98637.95;;;5.53;53.33
34235;BME280;20500;49.856;20.290;2023-03-12T16:09:35;98647.51;;;5.48;53.43
34235;BME280;20500;49.856;20.290;2023-03-12T16:12:41;98650.77;;;5.41;53.37
34235;BME280;20500;49.856;20.290;2023-03-12T16:15:48;98650.07;;;5.35;53.32
34235;BME280;20500;49.856;20.290;2023-03-12T16:18:54;98645.84;;;5.29;53.29
34235;BME280;20500;49.856;20.290;2023-03-12T16:22:00;98635.72;;;5.23;53.12
34235;BME280;20500;49.856;20.290;2023-03-12T16:25:07;98633.98;;;5.17;53.23
34235;BME280;20500;49.856;20.290;2023-03-12T16:28:18;98631.15;;;5.11;53.27
34235;BME280;20500;49.856;20.290;2023-03-12T16:31:24;98636.72;;;5.06;53.34
34235;BME280;20500;49.856;20.290;2023-03-12T16:34:30;98641.61;;;4.99;53.20
34235;BME280;20500;49.856;20.290;2023-03-12T16:37:36;98652.20;;;4.90;53.13
34235;BME280;20500;49.856;20.290;2023-03-12T16:40:44;98657.10;;;4.83;53.23